Tilon 2 — 9H7860 — position and weather

sailwx.info

Track history (hours):
 
Tides and Currents Weather Stations Pressure Air Temp Water Temp Dewpoint Dewpoint Depression Visibility Wind Speed Wind Dir Waves Ship Positions

Tilon 2

Last reported at 2015-May-24 11:26 UTC. Time now 2015-May-28 03:58 UTC.
Position N 39°39' E 019°51'.

Length 32 m.

Type: Pleasure craft. MMSI: 215899000.

Date/timePositionNaut miles runAvg speedWind from/ knotsBaromVisibWave heightAir tempDewpointWater temp
2015-May-24 11:26N 39°39' E 019°51'1 1.0
2015-May-24 10:33N 39°40' E 019°52'0 0.0
2015-May-24 09:33N 39°40' E 019°52'0 0.0
2015-May-24 07:09N 39°40' E 019°52'0 0.0
2015-May-24 06:33N 39°40' E 019°52'0 0.0
2015-May-24 05:21N 39°40' E 019°52'0 0.0
2015-May-24 04:33N 39°40' E 019°52'0 0.0
2015-May-24 03:33N 39°40' E 019°52'0 0.0
2015-May-24 01:12N 39°40' E 019°52'0 0.0
2015-May-24 00:33N 39°40' E 019°52'0 0.0
2015-May-23 22:33N 39°40' E 019°52'0 0.0
2015-May-23 21:33N 39°40' E 019°52'3 1.5
2015-May-23 19:33N 39°42' E 019°54'3 2.5
2015-May-23 18:32N 39°44' E 019°56'0 0.0
2015-May-23 17:32N 39°44' E 019°56'1 1.1
2015-May-23 16:34N 39°43' E 019°57'6 6.0
2015-May-23 15:32N 39°39' E 019°51'  
2015-May-18 11:11N 39°39' E 019°51'1 0.9
2015-May-18 10:14N 39°40' E 019°51'0 0.0
2015-May-18 02:14N 39°40' E 019°51'0 0.0
2015-May-17 19:24N 39°40' E 019°51'10 0.9
2015-May-17 08:07N 39°34' E 020°01'21 0.8
2015-May-16 04:16N 39°14' E 020°10'15 1.0
2015-May-15 13:31N 39°29' E 020°08'1411.8
2015-May-15 12:21N 39°41' E 019°59'4 5.1
2015-May-15 11:31N 39°44' E 019°56'0 0.0
2015-May-15 10:31N 39°44' E 019°56'0 0.0
2015-May-15 09:31N 39°44' E 019°56'0 0.0
2015-May-15 08:28N 39°44' E 019°56'0 0.0
2015-May-15 07:31N 39°44' E 019°56'0 0.0
2015-May-15 06:31N 39°44' E 019°56'0 0.0
2015-May-15 05:31N 39°44' E 019°56'0 0.0
2015-May-15 04:31N 39°44' E 019°56'0 0.0
2015-May-15 03:31N 39°44' E 019°56'0 0.0
2015-May-15 02:28N 39°44' E 019°56'0 0.0
2015-May-15 01:28N 39°44' E 019°56'0 0.0
2015-May-15 00:28N 39°44' E 019°56'0 0.0
2015-May-14 23:28N 39°44' E 019°56'0 0.0
2015-May-14 22:28N 39°44' E 019°56'0 0.0
2015-May-14 21:31N 39°44' E 019°56'0 0.0
2015-May-14 20:31N 39°44' E 019°56'0 0.0
2015-May-14 19:31N 39°44' E 019°56'0 0.0
2015-May-14 18:33N 39°44' E 019°56'  
Track history (hours):
 
Tides and Currents Weather Stations Pressure Air Temp Water Temp Dewpoint Dewpoint Depression Visibility Wind Speed Wind Dir Waves Ship Positions

Tilon 2

Last reported at 2015-May-24 11:26 UTC. Time now 2015-May-28 03:58 UTC.
Position N 39°39' E 019°51'.

Length 32 m.

Type: Pleasure craft. MMSI: 215899000.

Date/timePositionNaut miles runAvg speedWind from/ knotsBaromVisibWave heightAir tempDewpointWater temp
2015-May-24 11:26N 39°39' E 019°51'1 1.0
2015-May-24 10:33N 39°40' E 019°52'0 0.0
2015-May-24 09:33N 39°40' E 019°52'0 0.0
2015-May-24 07:09N 39°40' E 019°52'0 0.0
2015-May-24 06:33N 39°40' E 019°52'0 0.0
2015-May-24 05:21N 39°40' E 019°52'0 0.0
2015-May-24 04:33N 39°40' E 019°52'0 0.0
2015-May-24 03:33N 39°40' E 019°52'0 0.0
2015-May-24 01:12N 39°40' E 019°52'0 0.0
2015-May-24 00:33N 39°40' E 019°52'0 0.0
2015-May-23 22:33N 39°40' E 019°52'0 0.0
2015-May-23 21:33N 39°40' E 019°52'3 1.5
2015-May-23 19:33N 39°42' E 019°54'3 2.5
2015-May-23 18:32N 39°44' E 019°56'0 0.0
2015-May-23 17:32N 39°44' E 019°56'1 1.1
2015-May-23 16:34N 39°43' E 019°57'6 6.0
2015-May-23 15:32N 39°39' E 019°51'  
2015-May-18 11:11N 39°39' E 019°51'1 0.9
2015-May-18 10:14N 39°40' E 019°51'0 0.0
2015-May-18 02:14N 39°40' E 019°51'0 0.0
2015-May-17 19:24N 39°40' E 019°51'10 0.9
2015-May-17 08:07N 39°34' E 020°01'21 0.8
2015-May-16 04:16N 39°14' E 020°10'15 1.0
2015-May-15 13:31N 39°29' E 020°08'1411.8
2015-May-15 12:21N 39°41' E 019°59'4 5.1
2015-May-15 11:31N 39°44' E 019°56'0 0.0
2015-May-15 10:31N 39°44' E 019°56'0 0.0
2015-May-15 09:31N 39°44' E 019°56'0 0.0
2015-May-15 08:28N 39°44' E 019°56'0 0.0
2015-May-15 07:31N 39°44' E 019°56'0 0.0
2015-May-15 06:31N 39°44' E 019°56'0 0.0
2015-May-15 05:31N 39°44' E 019°56'0 0.0
2015-May-15 04:31N 39°44' E 019°56'0 0.0
2015-May-15 03:31N 39°44' E 019°56'0 0.0
2015-May-15 02:28N 39°44' E 019°56'0 0.0
2015-May-15 01:28N 39°44' E 019°56'0 0.0
2015-May-15 00:28N 39°44' E 019°56'0 0.0
2015-May-14 23:28N 39°44' E 019°56'0 0.0
2015-May-14 22:28N 39°44' E 019°56'0 0.0
2015-May-14 21:31N 39°44' E 019°56'0 0.0
2015-May-14 20:31N 39°44' E 019°56'0 0.0
2015-May-14 19:31N 39°44' E 019°56'0 0.0
2015-May-14 18:33N 39°44' E 019°56'  

Dump ship's entire track history